Terminal Aerodrome Forecast
Issued by NWS

Home | Current Version | Previous Version | Text Only | Print | Product List | Glossary On
Versions: 1 2 3 4 5 6 7 8 9 10 11 12 13
000
FTUS44 KCRP 281100
TAFALI
TAF
KALI 281127Z 2812/2912 VRB03KT 5SM BR FEW012 SCT025
      TEMPO 2812/2814 2SM BR SCT015
     FM281530 18009KT P6SM SCT025
     FM281800 18011G17KT P6SM FEW035
     FM290000 17009KT P6SM SKC
     FM290800 18006KT P6SM SCT012 WS020/18035KT
      TEMPO 2909/2912 BKN012=

USA.gov is the U.S. government's official web portal to all federal, state and local government web resources and services.